sensor_id;sensor_type;location;lat;lon;timestamp;temperature;humidity
298;DHT22;133;49.626;9.680;2022-08-03T00:01:21;19.70;73.20
298;DHT22;133;49.626;9.680;2022-08-03T00:03:46;19.60;73.60
298;DHT22;133;49.626;9.680;2022-08-03T00:06:12;19.60;73.30
298;DHT22;133;49.626;9.680;2022-08-03T00:08:38;19.50;73.80
298;DHT22;133;49.626;9.680;2022-08-03T00:11:03;19.50;74.20
298;DHT22;133;49.626;9.680;2022-08-03T00:13:31;19.40;73.80
298;DHT22;133;49.626;9.680;2022-08-03T00:15:57;19.40;74.20
298;DHT22;133;49.626;9.680;2022-08-03T00:18:23;19.30;73.80
298;DHT22;133;49.626;9.680;2022-08-03T00:20:49;19.30;73.60
298;DHT22;133;49.626;9.680;2022-08-03T00:23:15;19.20;74.30
298;DHT22;133;49.626;9.680;2022-08-03T00:25:40;19.20;74.40
298;DHT22;133;49.626;9.680;2022-08-03T00:28:06;19.20;74.40
298;DHT22;133;49.626;9.680;2022-08-03T00:30:32;19.10;74.30
298;DHT22;133;49.626;9.680;2022-08-03T00:32:58;19.00;74.50
298;DHT22;133;49.626;9.680;2022-08-03T00:35:24;19.00;75.00
298;DHT22;133;49.626;9.680;2022-08-03T00:37:50;19.00;75.30
298;DHT22;133;49.626;9.680;2022-08-03T00:40:17;19.00;75.20
298;DHT22;133;49.626;9.680;2022-08-03T00:42:51;19.00;75.40
298;DHT22;133;49.626;9.680;2022-08-03T00:45:18;18.90;75.80
298;DHT22;133;49.626;9.680;2022-08-03T00:47:44;18.90;75.90
298;DHT22;133;49.626;9.680;2022-08-03T00:50:10;18.80;76.20
298;DHT22;133;49.626;9.680;2022-08-03T00:52:36;18.80;76.00
298;DHT22;133;49.626;9.680;2022-08-03T00:55:02;18.90;76.20
298;DHT22;133;49.626;9.680;2022-08-03T00:57:29;18.80;76.30
298;DHT22;133;49.626;9.680;2022-08-03T00:59:56;18.80;76.30
298;DHT22;133;49.626;9.680;2022-08-03T01:02:22;18.80;76.40
298;DHT22;133;49.626;9.680;2022-08-03T01:04:47;18.80;77.10
298;DHT22;133;49.626;9.680;2022-08-03T01:20:57;18.50;78.00
298;DHT22;133;49.626;9.680;2022-08-03T01:23:42;18.40;78.20
298;DHT22;133;49.626;9.680;2022-08-03T01:32:11;18.20;79.20
298;DHT22;133;49.626;9.680;2022-08-03T01:34:42;18.20;79.40
298;DHT22;133;49.626;9.680;2022-08-03T01:37:11;18.20;79.10
298;DHT22;133;49.626;9.680;2022-08-03T01:39:38;18.20;79.30
298;DHT22;133;49.626;9.680;2022-08-03T01:42:06;18.10;79.40
298;DHT22;133;49.626;9.680;2022-08-03T01:44:40;18.10;79.30
298;DHT22;133;49.626;9.680;2022-08-03T01:47:07;18.10;79.40
298;DHT22;133;49.626;9.680;2022-08-03T01:49:38;18.10;79.70
298;DHT22;133;49.626;9.680;2022-08-03T01:52:05;18.10;79.80
298;DHT22;133;49.626;9.680;2022-08-03T01:54:39;18.10;79.80
298;DHT22;133;49.626;9.680;2022-08-03T01:57:06;18.10;79.50
298;DHT22;133;49.626;9.680;2022-08-03T01:59:34;18.10;79.50
298;DHT22;133;49.626;9.680;2022-08-03T02:02:01;18.10;80.20
298;DHT22;133;49.626;9.680;2022-08-03T02:04:28;18.10;79.90
298;DHT22;133;49.626;9.680;2022-08-03T02:06:55;18.10;80.20
298;DHT22;133;49.626;9.680;2022-08-03T02:09:22;18.00;80.20
298;DHT22;133;49.626;9.680;2022-08-03T02:11:50;17.90;80.30
298;DHT22;133;49.626;9.680;2022-08-03T02:14:18;17.90;80.70
298;DHT22;133;49.626;9.680;2022-08-03T02:16:44;17.90;80.70
298;DHT22;133;49.626;9.680;2022-08-03T02:19:11;17.80;80.70
298;DHT22;133;49.626;9.680;2022-08-03T02:21:37;17.80;80.50
298;DHT22;133;49.626;9.680;2022-08-03T02:24:04;17.70;80.80
298;DHT22;133;49.626;9.680;2022-08-03T02:26:31;17.70;81.00
298;DHT22;133;49.626;9.680;2022-08-03T02:29:02;17.70;81.10
298;DHT22;133;49.626;9.680;2022-08-03T02:31:30;17.60;81.70
298;DHT22;133;49.626;9.680;2022-08-03T02:34:01;17.60;81.60
298;DHT22;133;49.626;9.680;2022-08-03T02:36:29;17.60;81.50
298;DHT22;133;49.626;9.680;2022-08-03T02:38:58;17.60;81.50
298;DHT22;133;49.626;9.680;2022-08-03T02:41:28;17.60;81.90
298;DHT22;133;49.626;9.680;2022-08-03T02:43:55;17.50;82.10
298;DHT22;133;49.626;9.680;2022-08-03T02:46:29;17.50;82.00
298;DHT22;133;49.626;9.680;2022-08-03T02:48:59;17.50;82.00
298;DHT22;133;49.626;9.680;2022-08-03T02:51:27;17.50;82.10
298;DHT22;133;49.626;9.680;2022-08-03T02:53:55;17.50;82.10
298;DHT22;133;49.626;9.680;2022-08-03T02:56:23;17.40;82.10
298;DHT22;133;49.626;9.680;2022-08-03T02:58:50;17.40;82.30
298;DHT22;133;49.626;9.680;2022-08-03T03:01:19;17.20;82.90
298;DHT22;133;49.626;9.680;2022-08-03T03:03:46;17.20;82.90
298;DHT22;133;49.626;9.680;2022-08-03T03:06:15;17.20;82.90
298;DHT22;133;49.626;9.680;2022-08-03T03:08:41;17.20;82.80
298;DHT22;133;49.626;9.680;2022-08-03T03:11:07;17.10;82.80
298;DHT22;133;49.626;9.680;2022-08-03T03:13:35;17.10;83.10
298;DHT22;133;49.626;9.680;2022-08-03T03:16:03;17.10;83.20
298;DHT22;133;49.626;9.680;2022-08-03T03:18:31;17.10;83.20
298;DHT22;133;49.626;9.680;2022-08-03T03:20:58;17.00;83.60
298;DHT22;133;49.626;9.680;2022-08-03T03:23:25;17.00;83.60
298;DHT22;133;49.626;9.680;2022-08-03T03:25:53;17.00;83.60
298;DHT22;133;49.626;9.680;2022-08-03T03:28:21;17.00;83.60
298;DHT22;133;49.626;9.680;2022-08-03T03:30:47;16.90;83.90
298;DHT22;133;49.626;9.680;2022-08-03T03:33:12;16.90;83.90
298;DHT22;133;49.626;9.680;2022-08-03T03:35:40;16.90;83.80
298;DHT22;133;49.626;9.680;2022-08-03T03:38:07;16.90;83.80
298;DHT22;133;49.626;9.680;2022-08-03T03:40:39;16.80;84.00
298;DHT22;133;49.626;9.680;2022-08-03T03:43:10;16.70;84.30
298;DHT22;133;49.626;9.680;2022-08-03T03:45:37;16.70;84.30
298;DHT22;133;49.626;9.680;2022-08-03T03:48:05;16.70;84.40
298;DHT22;133;49.626;9.680;2022-08-03T03:50:33;16.60;84.50
298;DHT22;133;49.626;9.680;2022-08-03T03:53:00;16.60;85.00
298;DHT22;133;49.626;9.680;2022-08-03T03:55:27;16.60;85.20
298;DHT22;133;49.626;9.680;2022-08-03T03:57:53;16.60;84.80
298;DHT22;133;49.626;9.680;2022-08-03T04:00:19;16.60;84.70
298;DHT22;133;49.626;9.680;2022-08-03T04:02:45;16.60;85.00
298;DHT22;133;49.626;9.680;2022-08-03T04:05:11;16.60;85.00
298;DHT22;133;49.626;9.680;2022-08-03T04:08:03;16.60;84.90
298;DHT22;133;49.626;9.680;2022-08-03T04:14:07;16.50;85.20
298;DHT22;133;49.626;9.680;2022-08-03T04:16:37;16.50;85.10
298;DHT22;133;49.626;9.680;2022-08-03T04:19:14;16.40;85.20
298;DHT22;133;49.626;9.680;2022-08-03T04:21:43;16.40;85.40
298;DHT22;133;49.626;9.680;2022-08-03T04:24:13;16.40;85.40
298;DHT22;133;49.626;9.680;2022-08-03T04:26:40;16.40;85.80
298;DHT22;133;49.626;9.680;2022-08-03T04:29:09;16.40;85.60
298;DHT22;133;49.626;9.680;2022-08-03T04:31:35;16.40;85.40
298;DHT22;133;49.626;9.680;2022-08-03T04:34:03;16.50;85.30
298;DHT22;133;49.626;9.680;2022-08-03T04:36:32;16.50;85.00
298;DHT22;133;49.626;9.680;2022-08-03T04:39:07;16.60;84.80
298;DHT22;133;49.626;9.680;2022-08-03T04:41:35;16.60;85.20
298;DHT22;133;49.626;9.680;2022-08-03T04:44:03;16.60;86.10
298;DHT22;133;49.626;9.680;2022-08-03T04:46:38;16.60;86.10
298;DHT22;133;49.626;9.680;2022-08-03T04:49:05;16.70;85.90
298;DHT22;133;49.626;9.680;2022-08-03T04:51:31;16.70;85.60
298;DHT22;133;49.626;9.680;2022-08-03T04:53:59;16.70;85.70
298;DHT22;133;49.626;9.680;2022-08-03T04:56:25;16.60;85.70
298;DHT22;133;49.626;9.680;2022-08-03T04:58:51;16.70;85.70
298;DHT22;133;49.626;9.680;2022-08-03T05:01:17;16.70;85.80
298;DHT22;133;49.626;9.680;2022-08-03T05:03:45;16.70;85.70
298;DHT22;133;49.626;9.680;2022-08-03T05:06:11;16.80;85.50
298;DHT22;133;49.626;9.680;2022-08-03T05:08:36;16.80;85.60
298;DHT22;133;49.626;9.680;2022-08-03T05:11:02;16.90;85.70
298;DHT22;133;49.626;9.680;2022-08-03T05:13:28;16.90;85.70
298;DHT22;133;49.626;9.680;2022-08-03T05:15:54;16.90;85.40
298;DHT22;133;49.626;9.680;2022-08-03T05:18:19;17.00;85.30
298;DHT22;133;49.626;9.680;2022-08-03T05:20:45;17.10;84.60
298;DHT22;133;49.626;9.680;2022-08-03T05:23:11;17.10;84.70
298;DHT22;133;49.626;9.680;2022-08-03T05:25:36;17.20;84.60
298;DHT22;133;49.626;9.680;2022-08-03T05:28:02;17.20;84.30
298;DHT22;133;49.626;9.680;2022-08-03T05:30:28;17.30;83.90
298;DHT22;133;49.626;9.680;2022-08-03T05:32:53;17.30;83.60
298;DHT22;133;49.626;9.680;2022-08-03T05:35:19;17.40;83.50
298;DHT22;133;49.626;9.680;2022-08-03T05:37:44;17.50;83.60
298;DHT22;133;49.626;9.680;2022-08-03T05:40:10;17.50;83.40
298;DHT22;133;49.626;9.680;2022-08-03T05:42:37;17.60;83.20
298;DHT22;133;49.626;9.680;2022-08-03T05:45:05;17.60;83.00
298;DHT22;133;49.626;9.680;2022-08-03T05:47:43;17.60;82.90
298;DHT22;133;49.626;9.680;2022-08-03T05:50:13;17.70;82.80
298;DHT22;133;49.626;9.680;2022-08-03T05:52:39;17.80;82.90
298;DHT22;133;49.626;9.680;2022-08-03T05:55:06;17.90;82.60
298;DHT22;133;49.626;9.680;2022-08-03T05:57:32;17.90;82.70
298;DHT22;133;49.626;9.680;2022-08-03T05:59:58;18.00;82.10
298;DHT22;133;49.626;9.680;2022-08-03T06:02:24;18.10;81.70
298;DHT22;133;49.626;9.680;2022-08-03T06:04:50;18.20;81.40
298;DHT22;133;49.626;9.680;2022-08-03T06:07:15;18.30;81.40
298;DHT22;133;49.626;9.680;2022-08-03T06:09:41;18.40;80.90
298;DHT22;133;49.626;9.680;2022-08-03T06:12:07;18.50;80.40
298;DHT22;133;49.626;9.680;2022-08-03T06:14:32;18.50;80.30
298;DHT22;133;49.626;9.680;2022-08-03T06:16:58;18.60;80.30
298;DHT22;133;49.626;9.680;2022-08-03T06:19:23;18.70;80.10
298;DHT22;133;49.626;9.680;2022-08-03T06:21:50;18.80;80.00
298;DHT22;133;49.626;9.680;2022-08-03T06:24:15;19.00;79.00
298;DHT22;133;49.626;9.680;2022-08-03T06:26:41;19.00;78.50
298;DHT22;133;49.626;9.680;2022-08-03T06:29:06;19.10;78.30
298;DHT22;133;49.626;9.680;2022-08-03T06:31:32;19.20;78.00
298;DHT22;133;49.626;9.680;2022-08-03T06:33:58;19.20;77.90
298;DHT22;133;49.626;9.680;2022-08-03T06:36:23;19.20;77.70
298;DHT22;133;49.626;9.680;2022-08-03T06:38:50;19.30;77.50
298;DHT22;133;49.626;9.680;2022-08-03T06:41:16;19.30;77.40
298;DHT22;133;49.626;9.680;2022-08-03T06:43:41;19.30;77.20
298;DHT22;133;49.626;9.680;2022-08-03T06:46:07;19.30;77.00
298;DHT22;133;49.626;9.680;2022-08-03T06:48:33;19.40;77.20
298;DHT22;133;49.626;9.680;2022-08-03T06:50:58;19.40;77.10
298;DHT22;133;49.626;9.680;2022-08-03T06:53:24;19.50;77.00
298;DHT22;133;49.626;9.680;2022-08-03T06:55:50;19.60;76.90
298;DHT22;133;49.626;9.680;2022-08-03T06:58:15;19.70;76.50
298;DHT22;133;49.626;9.680;2022-08-03T07:00:41;19.90;75.30
298;DHT22;133;49.626;9.680;2022-08-03T07:03:07;20.00;75.10
298;DHT22;133;49.626;9.680;2022-08-03T07:05:32;20.10;74.60
298;DHT22;133;49.626;9.680;2022-08-03T07:07:59;20.20;73.90
298;DHT22;133;49.626;9.680;2022-08-03T07:10:26;20.40;73.30
298;DHT22;133;49.626;9.680;2022-08-03T07:12:52;20.30;73.80
298;DHT22;133;49.626;9.680;2022-08-03T07:15:18;20.40;73.40
298;DHT22;133;49.626;9.680;2022-08-03T07:17:44;20.40;73.30
298;DHT22;133;49.626;9.680;2022-08-03T07:20:10;20.50;73.20
298;DHT22;133;49.626;9.680;2022-08-03T07:22:37;20.60;72.90
298;DHT22;133;49.626;9.680;2022-08-03T07:25:03;20.70;72.70
298;DHT22;133;49.626;9.680;2022-08-03T07:27:29;20.70;72.50
298;DHT22;133;49.626;9.680;2022-08-03T07:29:56;20.80;72.40
298;DHT22;133;49.626;9.680;2022-08-03T07:32:23;20.90;72.00
298;DHT22;133;49.626;9.680;2022-08-03T07:34:49;21.10;71.70
298;DHT22;133;49.626;9.680;2022-08-03T07:37:14;21.30;71.00
298;DHT22;133;49.626;9.680;2022-08-03T07:39:40;21.40;70.70
298;DHT22;133;49.626;9.680;2022-08-03T07:42:06;21.40;70.30
298;DHT22;133;49.626;9.680;2022-08-03T07:44:31;21.50;70.50
298;DHT22;133;49.626;9.680;2022-08-03T07:46:57;21.70;70.10
298;DHT22;133;49.626;9.680;2022-08-03T07:49:22;21.80;70.10
298;DHT22;133;49.626;9.680;2022-08-03T07:51:48;21.80;69.50
298;DHT22;133;49.626;9.680;2022-08-03T07:54:34;21.80;69.50
298;DHT22;133;49.626;9.680;2022-08-03T07:56:59;22.00;69.70
298;DHT22;133;49.626;9.680;2022-08-03T07:59:25;22.00;69.90
298;DHT22;133;49.626;9.680;2022-08-03T08:01:50;22.20;69.80
298;DHT22;133;49.626;9.680;2022-08-03T08:04:18;22.30;68.90
298;DHT22;133;49.626;9.680;2022-08-03T08:06:43;22.40;68.50
298;DHT22;133;49.626;9.680;2022-08-03T08:09:09;22.50;68.50
298;DHT22;133;49.626;9.680;2022-08-03T08:11:36;22.60;68.50
298;DHT22;133;49.626;9.680;2022-08-03T08:14:02;22.70;68.30
298;DHT22;133;49.626;9.680;2022-08-03T08:16:28;22.90;68.00
298;DHT22;133;49.626;9.680;2022-08-03T08:18:54;23.10;67.90
298;DHT22;133;49.626;9.680;2022-08-03T08:21:19;23.30;67.60
298;DHT22;133;49.626;9.680;2022-08-03T08:23:45;23.40;67.00
298;DHT22;133;49.626;9.680;2022-08-03T08:26:12;23.50;66.90
298;DHT22;133;49.626;9.680;2022-08-03T08:28:37;23.70;67.00
298;DHT22;133;49.626;9.680;2022-08-03T08:31:03;23.80;66.40
298;DHT22;133;49.626;9.680;2022-08-03T08:33:29;24.00;66.00
298;DHT22;133;49.626;9.680;2022-08-03T08:35:55;24.20;65.70
298;DHT22;133;49.626;9.680;2022-08-03T08:38:21;24.40;65.10
298;DHT22;133;49.626;9.680;2022-08-03T08:40:48;24.60;64.70
298;DHT22;133;49.626;9.680;2022-08-03T08:43:14;24.80;64.50
298;DHT22;133;49.626;9.680;2022-08-03T08:45:40;25.00;64.20
298;DHT22;133;49.626;9.680;2022-08-03T08:48:06;25.10;63.60
298;DHT22;133;49.626;9.680;2022-08-03T08:50:36;25.20;63.00
298;DHT22;133;49.626;9.680;2022-08-03T08:53:06;25.40;62.80
298;DHT22;133;49.626;9.680;2022-08-03T08:55:32;25.60;61.90
298;DHT22;133;49.626;9.680;2022-08-03T08:58:08;25.70;61.00
298;DHT22;133;49.626;9.680;2022-08-03T09:00:35;25.70;61.10
298;DHT22;133;49.626;9.680;2022-08-03T09:03:00;25.90;60.60
298;DHT22;133;49.626;9.680;2022-08-03T09:05:26;26.00;60.40
298;DHT22;133;49.626;9.680;2022-08-03T09:07:52;26.20;60.10
298;DHT22;133;49.626;9.680;2022-08-03T09:10:18;26.30;59.60
298;DHT22;133;49.626;9.680;2022-08-03T09:12:48;26.50;59.00
298;DHT22;133;49.626;9.680;2022-08-03T09:15:20;26.80;58.20
298;DHT22;133;49.626;9.680;2022-08-03T09:17:47;27.00;57.20
298;DHT22;133;49.626;9.680;2022-08-03T09:20:13;27.30;56.00
298;DHT22;133;49.626;9.680;2022-08-03T09:25:38;28.60;54.30
298;DHT22;133;49.626;9.680;2022-08-03T09:28:13;30.40;52.00
298;DHT22;133;49.626;9.680;2022-08-03T09:30:41;32.50;47.00
298;DHT22;133;49.626;9.680;2022-08-03T09:33:16;34.10;45.50
298;DHT22;133;49.626;9.680;2022-08-03T09:35:46;35.80;43.30
298;DHT22;133;49.626;9.680;2022-08-03T09:38:20;37.20;42.10
298;DHT22;133;49.626;9.680;2022-08-03T09:40:53;38.60;39.50
298;DHT22;133;49.626;9.680;2022-08-03T09:43:19;39.30;38.80
298;DHT22;133;49.626;9.680;2022-08-03T09:45:45;39.30;38.50
298;DHT22;133;49.626;9.680;2022-08-03T09:48:27;39.60;38.70
298;DHT22;133;49.626;9.680;2022-08-03T09:51:01;40.40;38.70
298;DHT22;133;49.626;9.680;2022-08-03T09:53:28;40.60;37.20
298;DHT22;133;49.626;9.680;2022-08-03T09:55:55;40.40;37.20
298;DHT22;133;49.626;9.680;2022-08-03T09:58:22;41.00;36.80
298;DHT22;133;49.626;9.680;2022-08-03T10:01:01;41.80;36.60
298;DHT22;133;49.626;9.680;2022-08-03T10:03:30;42.30;36.70
298;DHT22;133;49.626;9.680;2022-08-03T10:05:56;41.80;36.00
298;DHT22;133;49.626;9.680;2022-08-03T10:08:22;41.70;35.60
298;DHT22;133;49.626;9.680;2022-08-03T10:10:50;41.60;35.80
298;DHT22;133;49.626;9.680;2022-08-03T10:13:18;41.50;34.70
298;DHT22;133;49.626;9.680;2022-08-03T10:15:45;42.20;34.50
298;DHT22;133;49.626;9.680;2022-08-03T10:18:11;42.70;33.40
298;DHT22;133;49.626;9.680;2022-08-03T10:20:48;43.40;33.40
298;DHT22;133;49.626;9.680;2022-08-03T10:23:16;43.80;32.80
298;DHT22;133;49.626;9.680;2022-08-03T10:25:43;43.90;32.90
298;DHT22;133;49.626;9.680;2022-08-03T10:28:15;44.00;33.20
298;DHT22;133;49.626;9.680;2022-08-03T10:30:43;43.90;32.50
298;DHT22;133;49.626;9.680;2022-08-03T10:33:17;43.60;34.10
298;DHT22;133;49.626;9.680;2022-08-03T10:35:45;42.90;34.70
298;DHT22;133;49.626;9.680;2022-08-03T10:38:36;43.10;34.30
298;DHT22;133;49.626;9.680;2022-08-03T10:41:02;42.80;34.00
298;DHT22;133;49.626;9.680;2022-08-03T10:43:50;43.30;34.20
298;DHT22;133;49.626;9.680;2022-08-03T10:46:18;43.40;34.40
298;DHT22;133;49.626;9.680;2022-08-03T10:48:46;43.80;34.50
298;DHT22;133;49.626;9.680;2022-08-03T10:51:13;43.90;34.00
298;DHT22;133;49.626;9.680;2022-08-03T10:53:41;43.90;33.50
298;DHT22;133;49.626;9.680;2022-08-03T10:59:18;43.40;33.50
298;DHT22;133;49.626;9.680;2022-08-03T11:01:52;42.20;34.80
298;DHT22;133;49.626;9.680;2022-08-03T11:04:22;42.80;34.20
298;DHT22;133;49.626;9.680;2022-08-03T11:09:46;42.10;34.70
298;DHT22;133;49.626;9.680;2022-08-03T11:12:27;42.30;34.60
298;DHT22;133;49.626;9.680;2022-08-03T11:14:54;42.60;34.30
298;DHT22;133;49.626;9.680;2022-08-03T11:17:21;42.80;34.40
298;DHT22;133;49.626;9.680;2022-08-03T11:19:51;41.80;35.30
298;DHT22;133;49.626;9.680;2022-08-03T11:22:18;41.40;35.20
298;DHT22;133;49.626;9.680;2022-08-03T11:29:56;42.40;34.70
298;DHT22;133;49.626;9.680;2022-08-03T11:35:20;42.90;34.60
298;DHT22;133;49.626;9.680;2022-08-03T11:40:47;42.70;34.20
298;DHT22;133;49.626;9.680;2022-08-03T11:48:36;41.70;34.60
298;DHT22;133;49.626;9.680;2022-08-03T11:51:07;42.40;34.70
298;DHT22;133;49.626;9.680;2022-08-03T11:53:43;42.70;34.50
298;DHT22;133;49.626;9.680;2022-08-03T11:56:09;43.40;34.20
298;DHT22;133;49.626;9.680;2022-08-03T11:58:34;43.90;33.90
298;DHT22;133;49.626;9.680;2022-08-03T12:01:07;44.10;33.70
298;DHT22;133;49.626;9.680;2022-08-03T12:03:35;44.20;33.80
298;DHT22;133;49.626;9.680;2022-08-03T12:06:01;44.50;33.40
298;DHT22;133;49.626;9.680;2022-08-03T12:10:54;45.30;32.40
298;DHT22;133;49.626;9.680;2022-08-03T12:13:21;45.30;32.20
298;DHT22;133;49.626;9.680;2022-08-03T12:16:14;45.60;32.00
298;DHT22;133;49.626;9.680;2022-08-03T12:19:01;46.00;31.70
298;DHT22;133;49.626;9.680;2022-08-03T12:21:27;46.10;31.20
298;DHT22;133;49.626;9.680;2022-08-03T12:24:02;45.60;31.20
298;DHT22;133;49.626;9.680;2022-08-03T12:26:29;45.80;31.70
298;DHT22;133;49.626;9.680;2022-08-03T12:28:55;45.30;31.40
298;DHT22;133;49.626;9.680;2022-08-03T12:31:22;45.00;31.40
298;DHT22;133;49.626;9.680;2022-08-03T12:34:00;45.40;31.50
298;DHT22;133;49.626;9.680;2022-08-03T12:36:33;45.20;32.40
298;DHT22;133;49.626;9.680;2022-08-03T12:39:08;44.90;32.00
298;DHT22;133;49.626;9.680;2022-08-03T12:41:37;44.50;31.80
298;DHT22;133;49.626;9.680;2022-08-03T12:44:07;44.00;32.20
298;DHT22;133;49.626;9.680;2022-08-03T12:46:38;44.20;31.80
298;DHT22;133;49.626;9.680;2022-08-03T12:49:10;44.00;31.90
298;DHT22;133;49.626;9.680;2022-08-03T12:54:22;44.00;32.50
298;DHT22;133;49.626;9.680;2022-08-03T12:57:02;44.40;32.10
298;DHT22;133;49.626;9.680;2022-08-03T13:09:20;44.30;31.70
298;DHT22;133;49.626;9.680;2022-08-03T13:11:45;44.30;31.70
298;DHT22;133;49.626;9.680;2022-08-03T13:14:11;44.30;31.80
298;DHT22;133;49.626;9.680;2022-08-03T13:16:36;44.40;32.60
298;DHT22;133;49.626;9.680;2022-08-03T13:19:02;44.70;32.20
298;DHT22;133;49.626;9.680;2022-08-03T13:21:28;44.80;31.40
298;DHT22;133;49.626;9.680;2022-08-03T13:23:54;44.40;31.20
298;DHT22;133;49.626;9.680;2022-08-03T13:26:19;43.90;31.50
298;DHT22;133;49.626;9.680;2022-08-03T13:28:45;43.50;32.20
298;DHT22;133;49.626;9.680;2022-08-03T13:31:11;43.60;32.50
298;DHT22;133;49.626;9.680;2022-08-03T13:33:37;43.30;31.80
298;DHT22;133;49.626;9.680;2022-08-03T13:36:04;43.10;32.50
298;DHT22;133;49.626;9.680;2022-08-03T13:38:30;43.00;32.40
298;DHT22;133;49.626;9.680;2022-08-03T13:40:57;42.30;32.70
298;DHT22;133;49.626;9.680;2022-08-03T13:43:28;41.30;33.90
298;DHT22;133;49.626;9.680;2022-08-03T13:45:54;41.00;34.40
298;DHT22;133;49.626;9.680;2022-08-03T13:48:19;40.60;34.40
298;DHT22;133;49.626;9.680;2022-08-03T13:50:45;40.50;34.60
298;DHT22;133;49.626;9.680;2022-08-03T13:53:11;40.00;35.10
298;DHT22;133;49.626;9.680;2022-08-03T13:55:36;39.80;35.60
298;DHT22;133;49.626;9.680;2022-08-03T13:58:02;40.00;35.70
298;DHT22;133;49.626;9.680;2022-08-03T14:00:28;40.50;35.30
298;DHT22;133;49.626;9.680;2022-08-03T14:02:55;40.50;35.80
298;DHT22;133;49.626;9.680;2022-08-03T14:05:21;40.70;35.60
298;DHT22;133;49.626;9.680;2022-08-03T14:07:46;40.40;34.70
298;DHT22;133;49.626;9.680;2022-08-03T14:10:13;40.50;34.70
298;DHT22;133;49.626;9.680;2022-08-03T14:12:39;40.50;35.40
298;DHT22;133;49.626;9.680;2022-08-03T14:15:05;40.30;35.50
298;DHT22;133;49.626;9.680;2022-08-03T14:17:34;40.30;35.40
298;DHT22;133;49.626;9.680;2022-08-03T14:20:01;40.50;35.70
298;DHT22;133;49.626;9.680;2022-08-03T14:22:29;40.90;35.60
298;DHT22;133;49.626;9.680;2022-08-03T14:24:54;41.00;35.30
298;DHT22;133;49.626;9.680;2022-08-03T14:27:20;40.70;34.90
298;DHT22;133;49.626;9.680;2022-08-03T14:29:46;40.40;35.20
298;DHT22;133;49.626;9.680;2022-08-03T14:32:11;40.20;35.20
298;DHT22;133;49.626;9.680;2022-08-03T14:34:37;40.30;35.80
298;DHT22;133;49.626;9.680;2022-08-03T14:37:03;40.50;35.60
298;DHT22;133;49.626;9.680;2022-08-03T14:39:28;40.60;35.60
298;DHT22;133;49.626;9.680;2022-08-03T14:41:54;40.70;35.40
298;DHT22;133;49.626;9.680;2022-08-03T14:44:20;40.70;34.90
298;DHT22;133;49.626;9.680;2022-08-03T14:46:45;40.70;35.40
298;DHT22;133;49.626;9.680;2022-08-03T14:49:11;40.80;34.90
298;DHT22;133;49.626;9.680;2022-08-03T14:51:37;40.70;35.20
298;DHT22;133;49.626;9.680;2022-08-03T14:54:02;40.60;35.30
298;DHT22;133;49.626;9.680;2022-08-03T14:56:28;40.70;35.70
298;DHT22;133;49.626;9.680;2022-08-03T14:58:54;40.90;35.10
298;DHT22;133;49.626;9.680;2022-08-03T15:01:19;40.90;34.90
298;DHT22;133;49.626;9.680;2022-08-03T15:03:45;40.90;36.10
298;DHT22;133;49.626;9.680;2022-08-03T15:06:12;41.00;35.10
298;DHT22;133;49.626;9.680;2022-08-03T15:08:38;41.10;35.40
298;DHT22;133;49.626;9.680;2022-08-03T15:11:03;41.30;34.90
298;DHT22;133;49.626;9.680;2022-08-03T15:13:29;41.00;34.90
298;DHT22;133;49.626;9.680;2022-08-03T15:15:55;40.60;34.90
298;DHT22;133;49.626;9.680;2022-08-03T15:18:22;40.20;35.60
298;DHT22;133;49.626;9.680;2022-08-03T15:20:48;39.90;35.40
298;DHT22;133;49.626;9.680;2022-08-03T15:23:16;39.80;36.40
298;DHT22;133;49.626;9.680;2022-08-03T15:25:43;39.80;36.10
298;DHT22;133;49.626;9.680;2022-08-03T15:28:09;39.70;36.10
298;DHT22;133;49.626;9.680;2022-08-03T15:30:34;39.90;35.30
298;DHT22;133;49.626;9.680;2022-08-03T15:33:02;39.90;35.50
298;DHT22;133;49.626;9.680;2022-08-03T15:35:27;39.80;35.60
298;DHT22;133;49.626;9.680;2022-08-03T15:37:53;39.60;35.80
298;DHT22;133;49.626;9.680;2022-08-03T15:40:19;39.40;36.60
298;DHT22;133;49.626;9.680;2022-08-03T15:42:44;39.30;37.20
298;DHT22;133;49.626;9.680;2022-08-03T15:45:10;39.30;37.20
298;DHT22;133;49.626;9.680;2022-08-03T15:47:36;39.00;36.30
298;DHT22;133;49.626;9.680;2022-08-03T15:50:02;39.00;37.10
298;DHT22;133;49.626;9.680;2022-08-03T15:52:28;38.90;36.50
298;DHT22;133;49.626;9.680;2022-08-03T15:54:53;38.80;36.50
298;DHT22;133;49.626;9.680;2022-08-03T15:57:19;38.90;36.90
298;DHT22;133;49.626;9.680;2022-08-03T15:59:45;38.90;36.70
298;DHT22;133;49.626;9.680;2022-08-03T16:02:10;39.20;37.70
298;DHT22;133;49.626;9.680;2022-08-03T16:04:36;39.30;36.70
298;DHT22;133;49.626;9.680;2022-08-03T16:07:02;39.40;36.90
298;DHT22;133;49.626;9.680;2022-08-03T16:09:27;39.20;36.30
298;DHT22;133;49.626;9.680;2022-08-03T16:11:54;39.30;36.80
298;DHT22;133;49.626;9.680;2022-08-03T16:14:19;39.30;36.60
298;DHT22;133;49.626;9.680;2022-08-03T16:16:45;39.40;36.70
298;DHT22;133;49.626;9.680;2022-08-03T16:19:11;39.40;36.00
298;DHT22;133;49.626;9.680;2022-08-03T16:21:36;39.40;36.50
298;DHT22;133;49.626;9.680;2022-08-03T16:24:02;39.30;36.80
298;DHT22;133;49.626;9.680;2022-08-03T16:26:29;39.30;36.70
298;DHT22;133;49.626;9.680;2022-08-03T16:28:55;39.40;36.50
298;DHT22;133;49.626;9.680;2022-08-03T16:31:21;39.40;36.70
298;DHT22;133;49.626;9.680;2022-08-03T16:33:47;39.30;36.60
298;DHT22;133;49.626;9.680;2022-08-03T16:36:13;39.10;36.60
298;DHT22;133;49.626;9.680;2022-08-03T16:38:39;39.00;36.40
298;DHT22;133;49.626;9.680;2022-08-03T16:41:05;38.70;36.70
298;DHT22;133;49.626;9.680;2022-08-03T16:43:30;38.30;37.30
298;DHT22;133;49.626;9.680;2022-08-03T16:45:59;37.70;37.90
298;DHT22;133;49.626;9.680;2022-08-03T16:48:24;37.70;37.50
298;DHT22;133;49.626;9.680;2022-08-03T16:50:50;37.80;38.30
298;DHT22;133;49.626;9.680;2022-08-03T16:53:16;37.90;38.40
298;DHT22;133;49.626;9.680;2022-08-03T16:55:41;37.80;38.70
298;DHT22;133;49.626;9.680;2022-08-03T16:58:07;37.80;37.80
298;DHT22;133;49.626;9.680;2022-08-03T17:00:33;37.60;38.30
298;DHT22;133;49.626;9.680;2022-08-03T17:03:01;37.30;38.80
298;DHT22;133;49.626;9.680;2022-08-03T17:05:27;37.10;39.00
298;DHT22;133;49.626;9.680;2022-08-03T17:07:56;37.00;38.60
298;DHT22;133;49.626;9.680;2022-08-03T17:10:21;37.10;39.10
298;DHT22;133;49.626;9.680;2022-08-03T17:12:47;37.20;38.50
298;DHT22;133;49.626;9.680;2022-08-03T17:15:13;37.20;39.30
298;DHT22;133;49.626;9.680;2022-08-03T17:17:43;37.10;38.90
298;DHT22;133;49.626;9.680;2022-08-03T17:20:12;37.00;39.20
298;DHT22;133;49.626;9.680;2022-08-03T17:22:54;36.80;39.00
298;DHT22;133;49.626;9.680;2022-08-03T17:25:24;36.80;39.20
298;DHT22;133;49.626;9.680;2022-08-03T17:27:51;36.50;39.30
298;DHT22;133;49.626;9.680;2022-08-03T17:30:18;36.50;39.40
298;DHT22;133;49.626;9.680;2022-08-03T17:32:45;36.30;39.20
298;DHT22;133;49.626;9.680;2022-08-03T17:35:11;36.10;39.80
298;DHT22;133;49.626;9.680;2022-08-03T17:37:37;36.10;40.20
298;DHT22;133;49.626;9.680;2022-08-03T17:40:03;35.90;40.40